Time;durP1;ratioP1;P1;durP2;ratioP2;P2;SDS_P1;SDS_P2;PMS_P1;PMS_P2;Temp;Humidity;BMP_temperature;BMP_pressure;BME280_temperature;BME280_humidity;BME280_pressure;Samples;Min_cycle;Max_cycle;Signal;HPM_P1;HPM_P2
2022/08/17 00:00:00;;;;;;;0.8;0.8;;;;;;;24.1;100.0;100700;;;;
2022/08/17 00:01:02;;;;;;;0.8;0.8;;;;;;;24.1;100.0;100700;;;;
2022/08/17 00:02:05;;;;;;;0.8;0.8;;;;;;;24.1;100.0;100690;;;;
2022/08/17 00:03:03;;;;;;;0.8;0.8;;;;;;;24.1;100.0;100690;;;;
2022/08/17 00:04:00;;;;;;;0.8;0.8;;;;;;;24.2;100.0;100690;;;;
2022/08/17 00:05:00;;;;;;;0.8;0.8;;;;;;;24.2;100.0;100690;;;;
2022/08/17 00:06:02;;;;;;;0.8;0.8;;;;;;;24.1;100.0;100690;;;;
2022/08/17 00:07:00;;;;;;;0.8;0.8;;;;;;;24.1;100.0;100690;;;;
2022/08/17 00:08:00;;;;;;;0.8;0.8;;;;;;;24.2;100.0;100680;;;;
2022/08/17 00:09:01;;;;;;;0.7;0.7;;;;;;;24.2;100.0;100680;;;;
2022/08/17 00:10:00;;;;;;;0.7;0.7;;;;;;;24.0;100.0;100680;;;;
2022/08/17 00:11:03;;;;;;;0.7;0.7;;;;;;;24.0;100.0;100680;;;;
2022/08/17 00:12:10;;;;;;;0.7;0.7;;;;;;;23.9;100.0;100680;;;;
2022/08/17 00:13:04;;;;;;;0.7;0.7;;;;;;;23.9;100.0;100680;;;;
2022/08/17 00:14:02;;;;;;;0.7;0.7;;;;;;;23.9;100.0;100680;;;;
2022/08/17 00:15:00;;;;;;;0.7;0.7;;;;;;;23.9;100.0;100680;;;;
2022/08/17 00:16:03;;;;;;;0.7;0.7;;;;;;;23.9;100.0;100680;;;;
2022/08/17 00:17:01;;;;;;;0.7;0.7;;;;;;;23.9;100.0;100680;;;;
2022/08/17 00:18:00;;;;;;;0.7;0.7;;;;;;;23.9;100.0;100680;;;;
2022/08/17 00:19:08;;;;;;;0.7;0.7;;;;;;;24.1;100.0;100670;;;;
2022/08/17 00:20:00;;;;;;;0.7;0.7;;;;;;;24.1;100.0;100670;;;;
2022/08/17 00:21:03;;;;;;;0.7;0.7;;;;;;;24.1;100.0;100670;;;;
2022/08/17 00:22:10;;;;;;;0.7;0.7;;;;;;;24.0;100.0;100670;;;;
2022/08/17 00:23:02;;;;;;;0.7;0.7;;;;;;;24.0;100.0;100670;;;;
2022/08/17 00:24:00;;;;;;;0.7;0.7;;;;;;;24.0;100.0;100670;;;;
2022/08/17 00:25:01;;;;;;;0.7;0.7;;;;;;;24.0;100.0;100670;;;;
2022/08/17 00:26:00;;;;;;;0.7;0.7;;;;;;;24.1;100.0;100670;;;;
2022/08/17 00:27:00;;;;;;;0.7;0.7;;;;;;;24.1;100.0;100670;;;;
2022/08/17 00:28:00;;;;;;;0.7;0.7;;;;;;;24.0;100.0;100670;;;;
2022/08/17 00:29:00;;;;;;;0.8;0.8;;;;;;;24.0;100.0;100670;;;;
2022/08/17 00:30:00;;;;;;;0.8;0.8;;;;;;;24.0;100.0;100670;;;;
2022/08/17 00:31:00;;;;;;;0.8;0.8;;;;;;;24.0;100.0;100670;;;;
2022/08/17 00:32:11;;;;;;;0.8;0.8;;;;;;;23.8;100.0;100670;;;;
2022/08/17 00:33:16;;;;;;;0.8;0.8;;;;;;;23.9;100.0;100670;;;;
2022/08/17 00:34:00;;;;;;;0.8;0.8;;;;;;;23.9;100.0;100670;;;;
2022/08/17 00:35:03;;;;;;;0.8;0.8;;;;;;;23.9;100.0;100670;;;;
2022/08/17 00:36:00;;;;;;;0.8;0.8;;;;;;;23.9;100.0;100660;;;;
2022/08/17 00:37:00;;;;;;;0.8;0.8;;;;;;;23.9;100.0;100660;;;;
2022/08/17 00:38:00;;;;;;;0.8;0.8;;;;;;;23.9;100.0;100660;;;;
2022/08/17 00:39:00;;;;;;;0.8;0.8;;;;;;;23.9;100.0;100660;;;;
2022/08/17 00:40:00;;;;;;;0.8;0.8;;;;;;;24.0;100.0;100660;;;;
2022/08/17 00:41:03;;;;;;;0.8;0.8;;;;;;;24.0;100.0;100660;;;;
2022/08/17 00:42:00;;;;;;;0.8;0.8;;;;;;;24.0;100.0;100650;;;;
2022/08/17 00:43:08;;;;;;;0.8;0.8;;;;;;;24.0;100.0;100650;;;;
2022/08/17 00:44:01;;;;;;;0.8;0.8;;;;;;;24.0;100.0;100650;;;;
2022/08/17 00:45:00;;;;;;;0.8;0.8;;;;;;;24.0;100.0;100650;;;;
2022/08/17 00:46:02;;;;;;;0.8;0.8;;;;;;;23.8;100.0;100650;;;;
2022/08/17 00:47:00;;;;;;;0.8;0.8;;;;;;;23.8;100.0;100650;;;;
2022/08/17 00:48:00;;;;;;;0.8;0.8;;;;;;;23.9;100.0;100650;;;;
2022/08/17 00:49:00;;;;;;;1.3;0.9;;;;;;;23.9;100.0;100650;;;;
2022/08/17 00:50:00;;;;;;;1.3;0.9;;;;;;;24.0;100.0;100650;;;;
2022/08/17 00:51:10;;;;;;;1.3;0.9;;;;;;;24.0;100.0;100640;;;;
2022/08/17 00:52:14;;;;;;;1.3;0.9;;;;;;;24.0;100.0;100640;;;;
2022/08/17 00:53:00;;;;;;;1.3;0.9;;;;;;;24.0;100.0;100640;;;;
2022/08/17 00:54:03;;;;;;;1.3;0.9;;;;;;;23.9;100.0;100640;;;;
2022/08/17 00:55:00;;;;;;;1.3;0.9;;;;;;;23.9;100.0;100640;;;;
2022/08/17 00:56:01;;;;;;;1.3;0.9;;;;;;;23.8;100.0;100640;;;;
2022/08/17 00:57:10;;;;;;;1.3;0.9;;;;;;;23.9;100.0;100640;;;;
2022/08/17 00:58:02;;;;;;;1.3;0.9;;;;;;;23.9;100.0;100640;;;;
2022/08/17 00:59:01;;;;;;;1.3;0.9;;;;;;;23.9;100.0;100640;;;;
2022/08/17 01:00:04;;;;;;;1.3;0.9;;;;;;;23.9;100.0;100640;;;;
2022/08/17 01:01:00;;;;;;;1.3;0.9;;;;;;;23.9;100.0;100640;;;;
2022/08/17 01:02:00;;;;;;;1.3;0.9;;;;;;;23.8;100.0;100640;;;;
2022/08/17 01:03:05;;;;;;;1.3;0.9;;;;;;;23.8;100.0;100640;;;;
2022/08/17 01:04:01;;;;;;;1.3;0.9;;;;;;;23.7;100.0;100640;;;;
2022/08/17 01:05:00;;;;;;;1.3;0.9;;;;;;;23.7;100.0;100640;;;;
2022/08/17 01:06:02;;;;;;;1.3;0.9;;;;;;;23.9;100.0;100640;;;;
2022/08/17 01:07:01;;;;;;;1.3;0.9;;;;;;;23.9;100.0;100640;;;;
2022/08/17 01:08:01;;;;;;;1.3;0.9;;;;;;;23.7;100.0;100640;;;;
2022/08/17 01:09:00;;;;;;;1.4;1.3;;;;;;;23.7;100.0;100640;;;;
2022/08/17 01:10:02;;;;;;;1.4;1.3;;;;;;;23.8;100.0;100640;;;;
2022/08/17 01:11:04;;;;;;;1.4;1.3;;;;;;;23.8;100.0;100640;;;;
2022/08/17 01:12:00;;;;;;;1.4;1.3;;;;;;;23.7;100.0;100640;;;;
2022/08/17 01:13:01;;;;;;;1.4;1.3;;;;;;;23.7;100.0;100640;;;;
2022/08/17 01:14:00;;;;;;;1.4;1.3;;;;;;;23.7;100.0;100640;;;;
2022/08/17 01:15:00;;;;;;;1.4;1.3;;;;;;;23.7;100.0;100640;;;;
2022/08/17 01:16:03;;;;;;;1.4;1.3;;;;;;;23.6;100.0;100640;;;;
2022/08/17 01:17:01;;;;;;;1.4;1.3;;;;;;;23.6;100.0;100640;;;;
2022/08/17 01:18:00;;;;;;;1.4;1.3;;;;;;;23.4;100.0;100640;;;;
2022/08/17 01:19:03;;;;;;;1.4;1.3;;;;;;;23.4;100.0;100640;;;;
2022/08/17 01:20:00;;;;;;;1.4;1.3;;;;;;;23.5;100.0;100640;;;;
2022/08/17 01:21:03;;;;;;;1.4;1.3;;;;;;;23.5;100.0;100640;;;;
2022/08/17 01:22:05;;;;;;;1.4;1.3;;;;;;;23.5;100.0;100630;;;;
2022/08/17 01:23:00;;;;;;;1.4;1.3;;;;;;;23.5;100.0;100630;;;;
2022/08/17 01:24:00;;;;;;;1.4;1.3;;;;;;;23.5;100.0;100630;;;;
2022/08/17 01:25:01;;;;;;;1.4;1.3;;;;;;;23.5;100.0;100630;;;;
2022/08/17 01:26:01;;;;;;;1.4;1.3;;;;;;;23.5;100.0;100630;;;;
2022/08/17 01:27:00;;;;;;;1.4;1.3;;;;;;;23.5;100.0;100630;;;;
2022/08/17 01:28:00;;;;;;;1.4;1.3;;;;;;;23.5;100.0;100630;;;;
2022/08/17 01:29:02;;;;;;;0.6;0.6;;;;;;;23.5;100.0;100630;;;;
2022/08/17 01:30:01;;;;;;;0.6;0.6;;;;;;;23.4;100.0;100630;;;;
2022/08/17 01:31:02;;;;;;;0.6;0.6;;;;;;;23.4;100.0;100630;;;;
2022/08/17 01:32:02;;;;;;;0.6;0.6;;;;;;;23.5;100.0;100620;;;;
2022/08/17 01:33:00;;;;;;;0.6;0.6;;;;;;;23.5;100.0;100620;;;;
2022/08/17 01:34:02;;;;;;;0.6;0.6;;;;;;;23.4;100.0;100620;;;;
2022/08/17 01:35:00;;;;;;;0.6;0.6;;;;;;;23.4;100.0;100620;;;;
2022/08/17 01:36:00;;;;;;;0.6;0.6;;;;;;;23.6;100.0;100610;;;;
2022/08/17 01:37:00;;;;;;;0.6;0.6;;;;;;;23.6;100.0;100610;;;;
2022/08/17 01:38:00;;;;;;;0.6;0.6;;;;;;;23.5;100.0;100610;;;;
2022/08/17 01:39:00;;;;;;;0.6;0.6;;;;;;;23.5;100.0;100610;;;;
2022/08/17 01:40:05;;;;;;;0.6;0.6;;;;;;;23.4;100.0;100610;;;;
2022/08/17 01:41:02;;;;;;;0.6;0.6;;;;;;;23.4;100.0;100610;;;;
2022/08/17 01:42:10;;;;;;;0.6;0.6;;;;;;;23.3;100.0;100610;;;;
2022/08/17 01:43:03;;;;;;;0.6;0.6;;;;;;;23.3;100.0;100610;;;;
2022/08/17 01:44:01;;;;;;;0.6;0.6;;;;;;;23.2;100.0;100610;;;;
2022/08/17 01:45:03;;;;;;;0.6;0.6;;;;;;;23.2;100.0;100610;;;;
2022/08/17 01:46:04;;;;;;;0.6;0.6;;;;;;;23.2;100.0;100610;;;;
2022/08/17 01:47:01;;;;;;;0.6;0.6;;;;;;;23.2;100.0;100610;;;;
2022/08/17 01:48:00;;;;;;;0.6;0.6;;;;;;;23.3;100.0;100600;;;;
2022/08/17 01:49:00;;;;;;;0.9;0.9;;;;;;;23.3;100.0;100600;;;;
2022/08/17 01:50:10;;;;;;;0.9;0.9;;;;;;;23.0;100.0;100610;;;;
2022/08/17 01:51:00;;;;;;;0.9;0.9;;;;;;;23.0;100.0;100610;;;;
2022/08/17 01:52:08;;;;;;;0.9;0.9;;;;;;;23.1;100.0;100600;;;;
2022/08/17 01:53:03;;;;;;;0.9;0.9;;;;;;;23.1;100.0;100600;;;;
2022/08/17 01:54:01;;;;;;;0.9;0.9;;;;;;;23.2;100.0;100600;;;;
2022/08/17 01:55:00;;;;;;;0.9;0.9;;;;;;;23.2;100.0;100600;;;;
2022/08/17 01:56:04;;;;;;;0.9;0.9;;;;;;;23.2;100.0;100600;;;;
2022/08/17 01:57:00;;;;;;;0.9;0.9;;;;;;;23.2;100.0;100600;;;;
2022/08/17 01:58:02;;;;;;;0.9;0.9;;;;;;;23.2;100.0;100610;;;;
2022/08/17 01:59:00;;;;;;;0.9;0.9;;;;;;;23.2;100.0;100610;;;;
2022/08/17 02:00:00;;;;;;;0.9;0.9;;;;;;;23.2;100.0;100610;;;;
2022/08/17 02:01:01;;;;;;;0.9;0.9;;;;;;;23.2;100.0;100610;;;;
2022/08/17 02:02:00;;;;;;;0.9;0.9;;;;;;;23.3;100.0;100620;;;;
2022/08/17 02:03:00;;;;;;;0.9;0.9;;;;;;;23.3;100.0;100620;;;;
2022/08/17 02:04:01;;;;;;;0.9;0.9;;;;;;;23.2;100.0;100620;;;;
2022/08/17 02:05:00;;;;;;;0.9;0.9;;;;;;;23.2;100.0;100620;;;;
2022/08/17 02:06:01;;;;;;;0.9;0.9;;;;;;;23.3;100.0;100620;;;;
2022/08/17 02:07:00;;;;;;;0.9;0.9;;;;;;;23.3;100.0;100620;;;;
2022/08/17 02:08:01;;;;;;;0.9;0.9;;;;;;;23.3;100.0;100610;;;;
2022/08/17 02:09:03;;;;;;;0.8;0.8;;;;;;;23.3;100.0;100610;;;;
2022/08/17 02:10:00;;;;;;;0.8;0.8;;;;;;;23.4;100.0;100610;;;;
2022/08/17 02:11:11;;;;;;;0.8;0.8;;;;;;;23.2;100.0;100610;;;;
2022/08/17 02:12:10;;;;;;;0.8;0.8;;;;;;;23.2;100.0;100610;;;;
2022/08/17 02:13:01;;;;;;;0.8;0.8;;;;;;;23.2;100.0;100610;;;;
2022/08/17 02:14:03;;;;;;;0.8;0.8;;;;;;;23.3;100.0;100610;;;;
2022/08/17 02:15:00;;;;;;;0.8;0.8;;;;;;;23.3;100.0;100610;;;;
2022/08/17 02:16:00;;;;;;;0.8;0.8;;;;;;;23.2;100.0;100610;;;;
2022/08/17 02:17:00;;;;;;;0.8;0.8;;;;;;;23.2;100.0;100610;;;;
2022/08/17 02:18:01;;;;;;;0.8;0.8;;;;;;;23.3;100.0;100600;;;;
2022/08/17 02:19:00;;;;;;;0.8;0.8;;;;;;;23.3;100.0;100600;;;;
2022/08/17 02:20:00;;;;;;;0.8;0.8;;;;;;;23.3;100.0;100600;;;;
2022/08/17 02:21:00;;;;;;;0.8;0.8;;;;;;;23.3;100.0;100600;;;;
2022/08/17 02:22:00;;;;;;;0.8;0.8;;;;;;;23.3;100.0;100600;;;;
2022/08/17 02:23:01;;;;;;;0.8;0.8;;;;;;;23.3;100.0;100600;;;;
2022/08/17 02:24:00;;;;;;;0.8;0.8;;;;;;;23.1;100.0;100600;;;;
2022/08/17 02:25:02;;;;;;;0.8;0.8;;;;;;;23.1;100.0;100600;;;;
2022/08/17 02:26:00;;;;;;;0.8;0.8;;;;;;;23.0;100.0;100600;;;;
2022/08/17 02:27:00;;;;;;;0.8;0.8;;;;;;;23.0;100.0;100600;;;;
2022/08/17 02:28:00;;;;;;;0.8;0.8;;;;;;;23.0;100.0;100600;;;;
2022/08/17 02:29:00;;;;;;;0.7;0.7;;;;;;;23.0;100.0;100600;;;;
2022/08/17 02:30:00;;;;;;;0.7;0.7;;;;;;;23.1;100.0;100610;;;;
2022/08/17 02:31:04;;;;;;;0.7;0.7;;;;;;;22.9;100.0;100600;;;;
2022/08/17 02:32:00;;;;;;;0.7;0.7;;;;;;;22.9;100.0;100600;;;;
2022/08/17 02:33:05;;;;;;;0.7;0.7;;;;;;;22.9;100.0;100600;;;;
2022/08/17 02:34:05;;;;;;;0.7;0.7;;;;;;;22.9;100.0;100600;;;;
2022/08/17 02:35:00;;;;;;;0.7;0.7;;;;;;;22.9;100.0;100600;;;;
2022/08/17 02:36:00;;;;;;;0.7;0.7;;;;;;;22.7;100.0;100600;;;;
2022/08/17 02:37:00;;;;;;;0.7;0.7;;;;;;;22.7;100.0;100600;;;;
2022/08/17 02:38:00;;;;;;;0.7;0.7;;;;;;;22.8;100.0;100600;;;;
2022/08/17 02:39:02;;;;;;;0.7;0.7;;;;;;;22.8;100.0;100600;;;;
2022/08/17 02:40:00;;;;;;;0.7;0.7;;;;;;;22.8;100.0;100600;;;;
2022/08/17 02:41:00;;;;;;;0.7;0.7;;;;;;;22.8;100.0;100600;;;;
2022/08/17 02:42:01;;;;;;;0.7;0.7;;;;;;;22.8;100.0;100600;;;;
2022/08/17 02:43:03;;;;;;;0.7;0.7;;;;;;;22.8;100.0;100600;;;;
2022/08/17 02:44:00;;;;;;;0.7;0.7;;;;;;;22.6;100.0;100600;;;;
2022/08/17 02:45:01;;;;;;;0.7;0.7;;;;;;;22.6;100.0;100600;;;;
2022/08/17 02:46:00;;;;;;;0.7;0.7;;;;;;;22.6;100.0;100600;;;;
2022/08/17 02:47:00;;;;;;;0.7;0.7;;;;;;;22.6;100.0;100600;;;;
2022/08/17 02:48:00;;;;;;;0.7;0.7;;;;;;;22.6;100.0;100600;;;;
2022/08/17 02:49:00;;;;;;;1.5;1.4;;;;;;;22.6;100.0;100600;;;;
2022/08/17 02:50:00;;;;;;;1.5;1.4;;;;;;;22.7;100.0;100600;;;;
2022/08/17 02:51:00;;;;;;;1.5;1.4;;;;;;;22.7;100.0;100600;;;;
2022/08/17 02:52:01;;;;;;;1.5;1.4;;;;;;;22.5;100.0;100600;;;;
2022/08/17 02:53:02;;;;;;;1.5;1.4;;;;;;;22.5;100.0;100600;;;;
2022/08/17 02:54:10;;;;;;;1.5;1.4;;;;;;;22.6;100.0;100590;;;;
2022/08/17 02:55:00;;;;;;;1.5;1.4;;;;;;;22.6;100.0;100590;;;;
2022/08/17 02:56:00;;;;;;;1.5;1.4;;;;;;;22.6;100.0;100590;;;;
2022/08/17 02:57:02;;;;;;;1.5;1.4;;;;;;;22.6;100.0;100590;;;;
2022/08/17 02:58:02;;;;;;;1.5;1.4;;;;;;;22.6;100.0;100590;;;;
2022/08/17 02:59:00;;;;;;;1.5;1.4;;;;;;;22.6;100.0;100590;;;;
2022/08/17 03:00:00;;;;;;;1.5;1.4;;;;;;;22.5;100.0;100580;;;;
2022/08/17 03:01:00;;;;;;;1.5;1.4;;;;;;;22.5;100.0;100580;;;;
2022/08/17 03:02:01;;;;;;;1.5;1.4;;;;;;;22.6;100.0;100580;;;;
2022/08/17 03:03:00;;;;;;;1.5;1.4;;;;;;;22.6;100.0;100580;;;;
2022/08/17 03:04:00;;;;;;;1.5;1.4;;;;;;;22.5;100.0;100580;;;;
2022/08/17 03:05:00;;;;;;;1.5;1.4;;;;;;;22.5;100.0;100580;;;;
2022/08/17 03:06:00;;;;;;;1.5;1.4;;;;;;;22.4;100.0;100580;;;;
2022/08/17 03:07:00;;;;;;;1.5;1.4;;;;;;;22.4;100.0;100580;;;;
2022/08/17 03:08:00;;;;;;;1.5;1.4;;;;;;;22.4;100.0;100580;;;;
2022/08/17 03:09:00;;;;;;;1.4;1.3;;;;;;;22.4;100.0;100580;;;;
2022/08/17 03:10:00;;;;;;;1.4;1.3;;;;;;;22.4;100.0;100580;;;;
2022/08/17 03:11:00;;;;;;;1.4;1.3;;;;;;;22.4;100.0;100580;;;;
2022/08/17 03:12:04;;;;;;;1.4;1.3;;;;;;;22.5;100.0;100580;;;;
2022/08/17 03:13:00;;;;;;;1.4;1.3;;;;;;;22.5;100.0;100580;;;;
2022/08/17 03:14:00;;;;;;;1.4;1.3;;;;;;;22.5;100.0;100580;;;;
2022/08/17 03:15:02;;;;;;;1.4;1.3;;;;;;;22.5;100.0;100580;;;;
2022/08/17 03:16:00;;;;;;;1.4;1.3;;;;;;;22.5;100.0;100580;;;;
2022/08/17 03:17:00;;;;;;;1.4;1.3;;;;;;;22.5;100.0;100580;;;;
2022/08/17 03:18:01;;;;;;;1.4;1.3;;;;;;;22.6;100.0;100580;;;;
2022/08/17 03:19:00;;;;;;;1.4;1.3;;;;;;;22.6;100.0;100580;;;;
2022/08/17 03:20:00;;;;;;;1.4;1.3;;;;;;;22.6;100.0;100590;;;;
2022/08/17 03:21:02;;;;;;;1.4;1.3;;;;;;;22.6;100.0;100590;;;;
2022/08/17 03:22:13;;;;;;;1.4;1.3;;;;;;;22.6;100.0;100580;;;;
2022/08/17 03:23:03;;;;;;;1.4;1.3;;;;;;;22.6;100.0;100580;;;;
2022/08/17 03:24:00;;;;;;;1.4;1.3;;;;;;;22.6;100.0;100580;;;;
2022/08/17 03:25:00;;;;;;;1.4;1.3;;;;;;;22.6;100.0;100580;;;;
2022/08/17 03:26:00;;;;;;;1.4;1.3;;;;;;;22.7;100.0;100580;;;;
2022/08/17 03:27:00;;;;;;;1.4;1.3;;;;;;;22.7;100.0;100580;;;;
2022/08/17 03:28:00;;;;;;;1.4;1.3;;;;;;;22.7;100.0;100590;;;;
2022/08/17 03:29:00;;;;;;;0.8;0.5;;;;;;;22.7;100.0;100590;;;;
2022/08/17 03:30:00;;;;;;;0.8;0.5;;;;;;;22.6;100.0;100590;;;;
2022/08/17 03:31:00;;;;;;;0.8;0.5;;;;;;;22.6;100.0;100590;;;;
2022/08/17 03:32:08;;;;;;;0.8;0.5;;;;;;;22.6;100.0;100590;;;;
2022/08/17 03:33:08;;;;;;;0.8;0.5;;;;;;;22.6;100.0;100590;;;;
2022/08/17 03:34:00;;;;;;;0.8;0.5;;;;;;;22.6;100.0;100590;;;;
2022/08/17 03:35:00;;;;;;;0.8;0.5;;;;;;;22.6;100.0;100590;;;;
2022/08/17 03:36:00;;;;;;;0.8;0.5;;;;;;;22.5;100.0;100590;;;;
2022/08/17 03:37:00;;;;;;;0.8;0.5;;;;;;;22.5;100.0;100590;;;;
2022/08/17 03:38:01;;;;;;;0.8;0.5;;;;;;;22.5;100.0;100590;;;;
2022/08/17 03:39:00;;;;;;;0.8;0.5;;;;;;;22.5;100.0;100590;;;;
2022/08/17 03:40:00;;;;;;;0.8;0.5;;;;;;;22.5;100.0;100590;;;;
2022/08/17 03:41:00;;;;;;;0.8;0.5;;;;;;;22.5;100.0;100590;;;;
2022/08/17 03:42:20;;;;;;;0.8;0.5;;;;;;;22.4;100.0;100590;;;;
2022/08/17 03:43:04;;;;;;;0.8;0.5;;;;;;;22.4;100.0;100590;;;;
2022/08/17 03:44:00;;;;;;;0.8;0.5;;;;;;;22.3;100.0;100590;;;;
2022/08/17 03:45:01;;;;;;;0.8;0.5;;;;;;;22.3;100.0;100590;;;;
2022/08/17 03:57:04;;;;;;;0.5;0.4;;;;;;;22.2;100.0;100580;;;;
2022/08/17 03:58:00;;;;;;;0.5;0.4;;;;;;;22.2;100.0;100580;;;;
2022/08/17 03:59:00;;;;;;;0.5;0.4;;;;;;;22.2;100.0;100580;;;;
2022/08/17 04:00:00;;;;;;;0.5;0.4;;;;;;;22.2;100.0;100590;;;;
2022/08/17 04:01:01;;;;;;;0.5;0.4;;;;;;;22.2;100.0;100590;;;;
2022/08/17 04:02:03;;;;;;;0.5;0.4;;;;;;;22.2;100.0;100590;;;;
2022/08/17 04:03:00;;;;;;;0.5;0.4;;;;;;;22.2;100.0;100590;;;;
2022/08/17 04:04:00;;;;;;;0.5;0.4;;;;;;;22.3;100.0;100590;;;;
2022/08/17 04:05:00;;;;;;;0.5;0.4;;;;;;;22.3;100.0;100590;;;;
2022/08/17 04:06:01;;;;;;;0.5;0.4;;;;;;;22.2;100.0;100590;;;;
2022/08/17 04:07:00;;;;;;;0.5;0.4;;;;;;;22.2;100.0;100590;;;;
2022/08/17 04:08:00;;;;;;;0.5;0.4;;;;;;;22.2;100.0;100590;;;;
2022/08/17 04:09:00;;;;;;;0.7;0.7;;;;;;;22.2;100.0;100590;;;;
2022/08/17 04:10:00;;;;;;;0.7;0.7;;;;;;;22.4;100.0;100590;;;;
2022/08/17 04:11:00;;;;;;;0.7;0.7;;;;;;;22.4;100.0;100590;;;;
2022/08/17 04:12:05;;;;;;;0.7;0.7;;;;;;;22.4;100.0;100590;;;;
2022/08/17 04:13:00;;;;;;;0.7;0.7;;;;;;;22.4;100.0;100590;;;;
2022/08/17 04:14:00;;;;;;;0.7;0.7;;;;;;;22.4;100.0;100590;;;;
2022/08/17 04:15:00;;;;;;;0.7;0.7;;;;;;;22.4;100.0;100590;;;;
2022/08/17 04:16:00;;;;;;;0.7;0.7;;;;;;;22.4;100.0;100590;;;;
2022/08/17 04:17:00;;;;;;;0.7;0.7;;;;;;;22.4;100.0;100590;;;;
2022/08/17 04:18:00;;;;;;;0.7;0.7;;;;;;;22.4;100.0;100600;;;;
2022/08/17 04:19:00;;;;;;;0.7;0.7;;;;;;;22.4;100.0;100600;;;;
2022/08/17 04:20:00;;;;;;;0.7;0.7;;;;;;;22.4;100.0;100600;;;;
2022/08/17 04:21:00;;;;;;;0.7;0.7;;;;;;;22.4;100.0;100600;;;;
2022/08/17 04:22:00;;;;;;;0.7;0.7;;;;;;;22.3;100.0;100600;;;;
2022/08/17 04:23:01;;;;;;;0.7;0.7;;;;;;;22.3;100.0;100600;;;;
2022/08/17 04:24:00;;;;;;;0.7;0.7;;;;;;;22.4;100.0;100600;;;;
2022/08/17 04:25:05;;;;;;;0.7;0.7;;;;;;;22.5;100.0;100610;;;;
2022/08/17 04:26:00;;;;;;;0.7;0.7;;;;;;;22.5;100.0;100610;;;;
2022/08/17 04:27:00;;;;;;;0.7;0.7;;;;;;;22.5;100.0;100610;;;;
2022/08/17 04:28:00;;;;;;;0.7;0.7;;;;;;;22.4;100.0;100610;;;;
2022/08/17 04:29:00;;;;;;;0.4;0.4;;;;;;;22.4;100.0;100610;;;;
2022/08/17 04:30:00;;;;;;;0.4;0.4;;;;;;;22.5;100.0;100610;;;;
2022/08/17 04:31:00;;;;;;;0.4;0.4;;;;;;;22.5;100.0;100610;;;;
2022/08/17 04:32:01;;;;;;;0.4;0.4;;;;;;;22.4;100.0;100610;;;;
2022/08/17 04:33:07;;;;;;;0.4;0.4;;;;;;;22.4;100.0;100610;;;;
2022/08/17 04:34:00;;;;;;;0.4;0.4;;;;;;;22.4;100.0;100610;;;;
2022/08/17 04:35:00;;;;;;;0.4;0.4;;;;;;;22.4;100.0;100610;;;;
2022/08/17 04:36:01;;;;;;;0.4;0.4;;;;;;;22.5;100.0;100610;;;;
2022/08/17 04:37:00;;;;;;;0.4;0.4;;;;;;;22.5;100.0;100610;;;;
2022/08/17 04:38:00;;;;;;;0.4;0.4;;;;;;;22.5;100.0;100620;;;;
2022/08/17 04:39:00;;;;;;;0.4;0.4;;;;;;;22.5;100.0;100620;;;;
2022/08/17 04:42:15;;;;;;;0.4;0.4;;;;;;;22.5;100.0;100630;;;;
2022/08/17 04:43:01;;;;;;;0.4;0.4;;;;;;;22.5;100.0;100630;;;;
2022/08/17 04:44:02;;;;;;;0.4;0.4;;;;;;;22.4;100.0;100640;;;;
2022/08/17 04:45:02;;;;;;;0.4;0.4;;;;;;;22.4;100.0;100640;;;;
2022/08/17 04:46:02;;;;;;;0.4;0.4;;;;;;;22.3;100.0;100650;;;;
2022/08/17 04:47:00;;;;;;;0.4;0.4;;;;;;;22.3;100.0;100650;;;;
2022/08/17 04:48:00;;;;;;;0.4;0.4;;;;;;;22.2;100.0;100650;;;;
2022/08/17 04:49:01;;;;;;;0.8;0.8;;;;;;;22.2;100.0;100650;;;;
2022/08/17 04:50:01;;;;;;;0.8;0.8;;;;;;;22.2;100.0;100650;;;;
2022/08/17 04:51:00;;;;;;;0.8;0.8;;;;;;;22.2;100.0;100650;;;;
2022/08/17 04:52:04;;;;;;;0.8;0.8;;;;;;;22.2;100.0;100650;;;;
2022/08/17 04:53:01;;;;;;;0.8;0.8;;;;;;;22.2;100.0;100650;;;;
2022/08/17 04:54:01;;;;;;;0.8;0.8;;;;;;;22.3;100.0;100640;;;;
2022/08/17 04:55:02;;;;;;;0.8;0.8;;;;;;;22.3;100.0;100640;;;;
2022/08/17 04:56:00;;;;;;;0.8;0.8;;;;;;;22.2;100.0;100630;;;;
2022/08/17 04:57:00;;;;;;;0.8;0.8;;;;;;;22.2;100.0;100630;;;;
2022/08/17 04:58:00;;;;;;;0.8;0.8;;;;;;;22.4;100.0;100630;;;;
2022/08/17 04:59:01;;;;;;;0.8;0.8;;;;;;;22.4;100.0;100630;;;;
2022/08/17 05:00:00;;;;;;;0.8;0.8;;;;;;;22.2;100.0;100640;;;;
2022/08/17 05:01:00;;;;;;;0.8;0.8;;;;;;;22.2;100.0;100640;;;;
2022/08/17 05:02:00;;;;;;;0.8;0.8;;;;;;;22.3;100.0;100650;;;;
2022/08/17 05:03:00;;;;;;;0.8;0.8;;;;;;;22.3;100.0;100650;;;;
2022/08/17 05:04:11;;;;;;;0.8;0.8;;;;;;;22.4;100.0;100650;;;;
2022/08/17 05:05:00;;;;;;;0.8;0.8;;;;;;;22.4;100.0;100650;;;;
2022/08/17 05:06:00;;;;;;;0.8;0.8;;;;;;;22.4;100.0;100660;;;;
2022/08/17 05:07:00;;;;;;;0.8;0.8;;;;;;;22.4;100.0;100660;;;;
2022/08/17 05:08:01;;;;;;;0.8;0.8;;;;;;;22.2;100.0;100670;;;;
2022/08/17 05:09:00;;;;;;;0.8;0.7;;;;;;;22.2;100.0;100670;;;;
2022/08/17 05:10:00;;;;;;;0.8;0.7;;;;;;;22.3;100.0;100680;;;;
2022/08/17 05:11:00;;;;;;;0.8;0.7;;;;;;;22.3;100.0;100680;;;;
2022/08/17 05:12:01;;;;;;;0.8;0.7;;;;;;;22.3;100.0;100690;;;;
2022/08/17 05:13:01;;;;;;;0.8;0.7;;;;;;;22.3;100.0;100690;;;;
2022/08/17 05:14:00;;;;;;;0.8;0.7;;;;;;;22.2;100.0;100690;;;;
2022/08/17 05:15:00;;;;;;;0.8;0.7;;;;;;;22.2;100.0;100690;;;;
2022/08/17 05:16:01;;;;;;;0.8;0.7;;;;;;;22.2;100.0;100660;;;;
2022/08/17 05:17:01;;;;;;;0.8;0.7;;;;;;;22.2;100.0;100660;;;;
2022/08/17 05:18:00;;;;;;;0.8;0.7;;;;;;;22.2;100.0;100650;;;;
2022/08/17 05:19:01;;;;;;;0.8;0.7;;;;;;;22.2;100.0;100650;;;;
2022/08/17 05:20:00;;;;;;;0.8;0.7;;;;;;;22.3;100.0;100670;;;;
2022/08/17 05:21:01;;;;;;;0.8;0.7;;;;;;;22.3;100.0;100670;;;;
2022/08/17 05:22:03;;;;;;;0.8;0.7;;;;;;;22.2;100.0;100680;;;;
2022/08/17 05:23:05;;;;;;;0.8;0.7;;;;;;;22.2;100.0;100680;;;;
2022/08/17 05:24:00;;;;;;;0.8;0.7;;;;;;;22.4;100.0;100670;;;;
2022/08/17 05:25:02;;;;;;;0.8;0.7;;;;;;;22.4;100.0;100670;;;;
2022/08/17 05:26:02;;;;;;;0.8;0.7;;;;;;;22.4;100.0;100670;;;;
2022/08/17 05:27:06;;;;;;;0.8;0.7;;;;;;;22.5;100.0;100690;;;;
2022/08/17 05:28:02;;;;;;;0.8;0.7;;;;;;;22.5;100.0;100690;;;;
2022/08/17 05:29:03;;;;;;;0.3;0.3;;;;;;;22.5;100.0;100690;;;;
2022/08/17 05:30:00;;;;;;;0.3;0.3;;;;;;;22.4;100.0;100680;;;;
2022/08/17 05:31:01;;;;;;;0.3;0.3;;;;;;;22.4;100.0;100680;;;;
2022/08/17 05:32:21;;;;;;;0.3;0.3;;;;;;;22.5;100.0;100700;;;;
2022/08/17 05:33:02;;;;;;;0.3;0.3;;;;;;;22.5;100.0;100700;;;;
2022/08/17 05:34:00;;;;;;;0.3;0.3;;;;;;;22.5;100.0;100680;;;;
2022/08/17 05:35:00;;;;;;;0.3;0.3;;;;;;;22.5;100.0;100680;;;;
2022/08/17 05:36:00;;;;;;;0.3;0.3;;;;;;;22.5;100.0;100660;;;;
2022/08/17 05:37:00;;;;;;;0.3;0.3;;;;;;;22.5;100.0;100660;;;;
2022/08/17 05:38:00;;;;;;;0.3;0.3;;;;;;;22.5;100.0;100670;;;;
2022/08/17 05:39:00;;;;;;;0.3;0.3;;;;;;;22.5;100.0;100670;;;;
2022/08/17 05:40:00;;;;;;;0.3;0.3;;;;;;;22.7;100.0;100670;;;;
2022/08/17 05:41:02;;;;;;;0.3;0.3;;;;;;;22.7;100.0;100670;;;;
2022/08/17 05:42:00;;;;;;;0.3;0.3;;;;;;;22.5;100.0;100660;;;;
2022/08/17 05:43:04;;;;;;;0.3;0.3;;;;;;;22.5;100.0;100660;;;;
2022/08/17 05:44:05;;;;;;;0.3;0.3;;;;;;;22.6;100.0;100660;;;;
2022/08/17 05:45:00;;;;;;;0.3;0.3;;;;;;;22.6;100.0;100660;;;;
2022/08/17 05:46:01;;;;;;;0.3;0.3;;;;;;;22.7;100.0;100660;;;;
2022/08/17 05:47:00;;;;;;;0.3;0.3;;;;;;;22.7;100.0;100660;;;;
2022/08/17 05:48:00;;;;;;;0.3;0.3;;;;;;;22.7;100.0;100670;;;;
2022/08/17 05:49:03;;;;;;;0.6;0.6;;;;;;;22.7;100.0;100670;;;;
2022/08/17 05:50:02;;;;;;;0.6;0.6;;;;;;;22.6;100.0;100670;;;;
2022/08/17 05:51:06;;;;;;;0.6;0.6;;;;;;;22.7;100.0;100660;;;;
2022/08/17 05:52:07;;;;;;;0.6;0.6;;;;;;;22.7;100.0;100660;;;;
2022/08/17 05:53:08;;;;;;;0.6;0.6;;;;;;;22.7;100.0;100660;;;;
2022/08/17 05:54:10;;;;;;;0.6;0.6;;;;;;;22.7;100.0;100660;;;;
2022/08/17 05:55:04;;;;;;;0.6;0.6;;;;;;;22.7;100.0;100660;;;;
2022/08/17 05:56:18;;;;;;;0.6;0.6;;;;;;;22.7;100.0;100650;;;;
2022/08/17 05:57:01;;;;;;;0.6;0.6;;;;;;;22.7;100.0;100650;;;;
2022/08/17 05:58:01;;;;;;;0.6;0.6;;;;;;;22.6;100.0;100650;;;;
2022/08/17 05:59:06;;;;;;;0.6;0.6;;;;;;;22.7;100.0;100640;;;;
2022/08/17 06:00:06;;;;;;;0.6;0.6;;;;;;;22.7;100.0;100640;;;;
2022/08/17 06:01:10;;;;;;;0.6;0.6;;;;;;;22.6;100.0;100640;;;;
2022/08/17 06:02:00;;;;;;;0.6;0.6;;;;;;;22.6;100.0;100640;;;;
2022/08/17 06:03:03;;;;;;;0.6;0.6;;;;;;;22.6;100.0;100640;;;;
2022/08/17 06:04:10;;;;;;;0.6;0.6;;;;;;;22.6;100.0;100640;;;;
2022/08/17 06:05:09;;;;;;;0.6;0.6;;;;;;;22.5;100.0;100640;;;;
2022/08/17 06:06:10;;;;;;;0.6;0.6;;;;;;;22.5;100.0;100640;;;;
2022/08/17 06:07:04;;;;;;;0.6;0.6;;;;;;;22.5;100.0;100640;;;;
2022/08/17 06:08:00;;;;;;;0.6;0.6;;;;;;;22.6;100.0;100630;;;;
2022/08/17 06:09:10;;;;;;;0.4;0.3;;;;;;;22.5;100.0;100630;;;;
2022/08/17 06:10:07;;;;;;;0.4;0.3;;;;;;;22.5;100.0;100630;;;;
2022/08/17 06:11:00;;;;;;;0.4;0.3;;;;;;;22.5;100.0;100630;;;;
2022/08/17 06:12:14;;;;;;;0.4;0.3;;;;;;;22.6;100.0;100630;;;;
2022/08/17 06:13:08;;;;;;;0.4;0.3;;;;;;;22.6;100.0;100630;;;;
2022/08/17 06:14:10;;;;;;;0.4;0.3;;;;;;;22.6;100.0;100630;;;;
2022/08/17 06:15:01;;;;;;;0.4;0.3;;;;;;;22.6;100.0;100630;;;;
2022/08/17 06:16:01;;;;;;;0.4;0.3;;;;;;;22.6;100.0;100650;;;;
2022/08/17 06:17:03;;;;;;;0.4;0.3;;;;;;;22.6;100.0;100650;;;;
2022/08/17 06:18:03;;;;;;;0.4;0.3;;;;;;;22.6;100.0;100650;;;;
2022/08/17 06:19:08;;;;;;;0.4;0.3;;;;;;;22.6;100.0;100650;;;;
2022/08/17 06:20:05;;;;;;;0.4;0.3;;;;;;;22.6;100.0;100650;;;;
2022/08/17 06:21:02;;;;;;;0.4;0.3;;;;;;;22.6;100.0;100650;;;;
2022/08/17 06:22:01;;;;;;;0.4;0.3;;;;;;;22.6;100.0;100650;;;;
2022/08/17 06:23:03;;;;;;;0.4;0.3;;;;;;;22.6;100.0;100650;;;;
2022/08/17 06:24:04;;;;;;;0.4;0.3;;;;;;;22.6;100.0;100650;;;;
2022/08/17 06:25:09;;;;;;;0.4;0.3;;;;;;;22.6;100.0;100650;;;;
2022/08/17 06:26:04;;;;;;;0.4;0.3;;;;;;;22.6;100.0;100650;;;;
2022/08/17 06:27:05;;;;;;;0.4;0.3;;;;;;;22.8;100.0;100650;;;;
2022/08/17 06:28:02;;;;;;;0.4;0.3;;;;;;;22.8;100.0;100650;;;;
2022/08/17 06:29:02;;;;;;;0.6;0.6;;;;;;;22.8;100.0;100650;;;;
2022/08/17 06:30:01;;;;;;;0.6;0.6;;;;;;;22.9;100.0;100650;;;;
2022/08/17 06:31:05;;;;;;;0.6;0.6;;;;;;;22.9;100.0;100650;;;;
2022/08/17 06:32:01;;;;;;;0.6;0.6;;;;;;;22.9;100.0;100660;;;;
2022/08/17 06:33:05;;;;;;;0.6;0.6;;;;;;;23.0;100.0;100660;;;;
2022/08/17 06:34:01;;;;;;;0.6;0.6;;;;;;;23.0;100.0;100660;;;;
2022/08/17 06:35:01;;;;;;;0.6;0.6;;;;;;;23.0;100.0;100660;;;;